createdAt,value
2019-03-25T00:01:13.704Z,10.50
2019-03-25T00:03:43.587Z,13.60
2019-03-25T00:06:13.473Z,14.97
2019-03-25T00:08:43.367Z,12.97
2019-03-25T00:11:13.134Z,10.50
2019-03-25T00:13:42.838Z,15.07
2019-03-25T00:16:12.599Z,14.40
2019-03-25T00:18:42.269Z,12.07
2019-03-25T00:21:13.563Z,11.57
2019-03-25T00:23:43.247Z,12.87
2019-03-25T00:26:12.977Z,11.47
2019-03-25T00:28:42.748Z,13.87
2019-03-25T00:31:12.596Z,12.70
2019-03-25T00:33:43.557Z,12.80
2019-03-25T00:36:13.556Z,15.07
2019-03-25T00:38:47.520Z,11.80
2019-03-25T00:41:17.344Z,14.03
2019-03-25T00:43:47.062Z,11.70
2019-03-25T00:46:16.623Z,14.87
2019-03-25T00:48:46.422Z,11.90
2019-03-25T00:51:16.102Z,10.73
2019-03-25T00:53:45.819Z,14.73
2019-03-25T00:56:15.474Z,10.77
2019-03-25T00:58:45.153Z,8.60
2019-03-25T01:01:15.274Z,15.80
2019-03-25T01:03:45.080Z,12.93
2019-03-25T01:06:14.824Z,13.40
2019-03-25T01:08:45.274Z,11.03
2019-03-25T01:11:15.066Z,13.97
2019-03-25T01:13:44.844Z,12.87
2019-03-25T01:16:15.594Z,8.77
2019-03-25T01:18:45.385Z,14.33
2019-03-25T01:21:15.233Z,8.83
2019-03-25T01:23:44.969Z,11.20
2019-03-25T01:26:16.329Z,11.23
2019-03-25T01:28:45.843Z,11.03
2019-03-25T01:31:15.561Z,12.57
2019-03-25T01:33:45.350Z,12.87
2019-03-25T01:36:15.057Z,12.07
2019-03-25T01:38:48.947Z,8.97
2019-03-25T01:41:16.053Z,13.83
2019-03-25T01:43:45.762Z,9.90
2019-03-25T01:46:15.463Z,13.97
2019-03-25T01:48:46.208Z,14.60
2019-03-25T01:51:15.797Z,9.17
2019-03-25T01:53:45.525Z,10.23
2019-03-25T01:56:15.400Z,11.23
2019-03-25T01:58:44.911Z,10.47
2019-03-25T02:01:14.544Z,8.27
2019-03-25T02:03:44.158Z,11.73
2019-03-25T02:06:13.787Z,14.77
2019-03-25T02:08:43.476Z,13.30
2019-03-25T02:11:14.943Z,13.03
2019-03-25T02:13:44.764Z,9.77
2019-03-25T02:16:14.428Z,9.73
2019-03-25T02:18:44.140Z,12.53
2019-03-25T02:21:14.250Z,10.70
2019-03-25T02:23:43.864Z,12.17
2019-03-25T02:26:13.631Z,9.17
2019-03-25T02:28:43.276Z,13.13
2019-03-25T02:31:12.954Z,9.53
2019-03-25T02:33:42.512Z,11.43
2019-03-25T02:36:12.112Z,13.50
2019-03-25T02:38:41.764Z,12.80
2019-03-25T02:41:11.706Z,16.40
2019-03-25T02:43:41.390Z,14.37
2019-03-25T02:46:11.122Z,9.23
2019-03-25T02:48:40.767Z,10.43
2019-03-25T02:51:10.398Z,10.33
2019-03-25T02:53:40.899Z,11.10
2019-03-25T02:56:10.585Z,13.67
2019-03-25T02:58:40.169Z,13.50
2019-03-25T03:01:09.984Z,11.07
2019-03-25T03:03:39.566Z,11.23
2019-03-25T03:06:09.324Z,9.63
2019-03-25T03:08:38.995Z,10.00
2019-03-25T03:11:08.858Z,10.83
2019-03-25T03:13:38.386Z,11.90
2019-03-25T03:16:08.193Z,9.77
2019-03-25T03:18:37.822Z,12.37
2019-03-25T03:21:07.584Z,11.77
2019-03-25T03:23:39.182Z,12.23
2019-03-25T03:26:08.957Z,9.33
2019-03-25T03:28:38.488Z,9.17
2019-03-25T03:31:08.303Z,10.30
2019-03-25T03:33:38.000Z,11.57
2019-03-25T03:36:08.616Z,8.97
2019-03-25T03:38:38.121Z,10.67
2019-03-25T03:41:08.069Z,11.40
2019-03-25T03:43:37.696Z,11.53
2019-03-25T03:46:07.465Z,12.10
2019-03-25T03:48:37.086Z,11.30
2019-03-25T03:51:06.862Z,10.17
2019-03-25T03:53:36.927Z,10.57
2019-03-25T03:56:13.684Z,9.20
2019-03-25T03:58:41.060Z,11.90
2019-03-25T04:01:10.757Z,15.03
2019-03-25T04:03:40.504Z,13.00
2019-03-25T04:06:10.235Z,10.47
2019-03-25T04:08:40.018Z,8.93
2019-03-25T04:11:09.733Z,9.27
2019-03-25T04:13:39.466Z,10.13
2019-03-25T04:16:09.175Z,8.30
2019-03-25T04:18:38.885Z,7.90
2019-03-25T04:21:08.531Z,10.63
2019-03-25T04:23:38.255Z,8.57
2019-03-25T04:26:07.865Z,11.27
2019-03-25T04:28:37.667Z,11.63
2019-03-25T04:31:07.436Z,10.33
2019-03-25T04:33:37.259Z,10.87
2019-03-25T04:36:06.970Z,12.73
2019-03-25T04:38:36.593Z,11.63
2019-03-25T04:41:06.440Z,10.30
2019-03-25T04:43:36.045Z,10.80
2019-03-25T04:46:05.862Z,10.57
2019-03-25T04:48:36.676Z,9.90
2019-03-25T04:51:06.521Z,12.00
2019-03-25T04:53:36.126Z,11.90
2019-03-25T04:56:05.830Z,7.10
2019-03-25T04:58:35.497Z,14.10
2019-03-25T05:01:05.224Z,9.07
2019-03-25T05:03:34.849Z,9.63
2019-03-25T05:06:04.695Z,11.07
2019-03-25T05:08:34.392Z,13.03
2019-03-25T05:11:04.174Z,11.00
2019-03-25T05:13:33.821Z,10.87
2019-03-25T05:16:03.561Z,11.30
2019-03-25T05:18:33.169Z,7.40
2019-03-25T05:21:02.764Z,16.37
2019-03-25T05:23:32.477Z,9.43
2019-03-25T05:26:02.144Z,13.53
2019-03-25T05:28:31.821Z,9.83
2019-03-25T05:31:01.457Z,12.33
2019-03-25T05:33:31.167Z,10.80
2019-03-25T05:36:00.898Z,11.53
2019-03-25T05:38:30.600Z,11.00
2019-03-25T05:41:00.308Z,8.87
2019-03-25T05:43:29.894Z,9.97
2019-03-25T05:45:59.724Z,14.13
2019-03-25T05:48:30.602Z,13.63
2019-03-25T05:51:00.122Z,13.07
2019-03-25T05:53:29.781Z,13.73
2019-03-25T05:55:59.395Z,11.77
2019-03-25T05:58:28.921Z,16.83
2019-03-25T06:00:58.521Z,15.57
2019-03-25T06:03:28.169Z,17.80
2019-03-25T06:05:57.921Z,15.00
2019-03-25T06:08:27.577Z,14.87
2019-03-25T06:10:57.208Z,11.73
2019-03-25T06:13:28.858Z,17.00
2019-03-25T06:15:58.342Z,14.67
2019-03-25T06:18:27.968Z,15.63
2019-03-25T06:20:57.553Z,16.03
2019-03-25T06:23:27.282Z,21.47
2019-03-25T06:25:56.829Z,16.17
2019-03-25T06:28:26.376Z,18.40
2019-03-25T06:30:56.241Z,18.83
2019-03-25T06:33:25.856Z,17.13
2019-03-25T06:35:55.483Z,17.00
2019-03-25T06:38:25.113Z,14.90
2019-03-25T06:40:54.933Z,12.10
2019-03-25T06:43:24.648Z,12.70
2019-03-25T06:45:54.496Z,13.17
2019-03-25T06:48:24.260Z,13.90
2019-03-25T06:50:53.896Z,15.07
2019-03-25T06:53:23.600Z,13.37
2019-03-25T06:55:53.319Z,13.50
2019-03-25T06:58:23.037Z,15.50
2019-03-25T07:00:52.787Z,18.83
2019-03-25T07:03:22.559Z,14.63
2019-03-25T07:05:52.254Z,14.23
2019-03-25T07:08:22.414Z,15.40
2019-03-25T07:10:52.360Z,17.03
2019-03-25T07:13:22.366Z,15.17
2019-03-25T07:15:52.069Z,16.00
2019-03-25T07:18:21.558Z,16.83
2019-03-25T07:20:51.367Z,14.17
2019-03-25T07:23:21.152Z,14.80
2019-03-25T07:25:51.068Z,12.23
2019-03-25T07:28:21.022Z,18.30
2019-03-25T07:30:51.906Z,18.73
2019-03-25T07:33:21.617Z,17.57
2019-03-25T07:35:51.328Z,19.40
2019-03-25T07:38:21.108Z,19.20
2019-03-25T07:40:50.819Z,18.87
2019-03-25T07:43:20.464Z,14.87
2019-03-25T07:45:50.213Z,17.63
2019-03-25T07:48:19.956Z,14.40
2019-03-25T07:50:49.916Z,17.40
2019-03-25T07:53:19.485Z,16.97
2019-03-25T07:55:49.216Z,14.80
2019-03-25T07:58:18.798Z,14.80
2019-03-25T08:00:48.713Z,18.23
2019-03-25T08:03:18.471Z,15.23
2019-03-25T08:05:48.484Z,15.53
2019-03-25T08:08:18.063Z,16.87
2019-03-25T08:10:47.851Z,13.60
2019-03-25T08:13:17.655Z,12.50
2019-03-25T08:15:48.318Z,12.23
2019-03-25T08:18:18.380Z,11.93
2019-03-25T08:20:48.630Z,15.53
2019-03-25T08:23:18.873Z,12.73
2019-03-25T08:25:48.624Z,12.53
2019-03-25T08:28:18.381Z,10.77
2019-03-25T08:30:48.017Z,10.77
2019-03-25T08:33:17.685Z,9.93
2019-03-25T08:35:48.441Z,8.07
2019-03-25T08:38:18.225Z,7.93
2019-03-25T08:40:47.930Z,8.30
2019-03-25T08:43:17.452Z,6.83
2019-03-25T08:45:47.171Z,9.73
2019-03-25T08:48:16.779Z,8.17
2019-03-25T08:50:46.448Z,9.03
2019-03-25T08:53:16.168Z,8.30
2019-03-25T08:55:45.953Z,7.43
2019-03-25T08:58:18.243Z,7.63
2019-03-25T09:00:47.963Z,7.07
2019-03-25T09:03:17.773Z,9.10
2019-03-25T09:05:47.586Z,6.87
2019-03-25T09:08:17.303Z,6.30
2019-03-25T09:10:47.033Z,7.77
2019-03-25T09:13:16.888Z,7.33
2019-03-25T09:15:46.563Z,7.07
2019-03-25T09:18:16.558Z,7.67
2019-03-25T09:20:46.251Z,7.67
2019-03-25T09:23:16.224Z,6.20
2019-03-25T09:25:46.477Z,6.17
2019-03-25T09:28:24.220Z,6.73
2019-03-25T09:31:20.154Z,5.63
2019-03-25T09:33:50.304Z,5.53
2019-03-25T09:36:21.189Z,6.90
2019-03-25T09:38:51.271Z,6.53
2019-03-25T09:41:21.414Z,6.90
2019-03-25T09:43:51.384Z,7.07
2019-03-25T09:46:20.979Z,5.87
2019-03-25T09:48:50.624Z,7.93
2019-03-25T09:51:20.321Z,6.50
2019-03-25T09:53:50.108Z,6.63
2019-03-25T09:56:19.765Z,6.53
2019-03-25T09:58:49.613Z,6.97
2019-03-25T10:01:19.418Z,7.27
2019-03-25T10:03:50.251Z,6.40
2019-03-25T10:06:20.165Z,10.43
2019-03-25T10:08:49.930Z,5.90
2019-03-25T10:11:19.658Z,7.70
2019-03-25T10:13:49.310Z,6.77
2019-03-25T10:16:19.113Z,4.90
2019-03-25T10:18:48.808Z,6.53
2019-03-25T10:21:18.616Z,6.57
2019-03-25T10:23:48.472Z,8.13
2019-03-25T10:26:18.372Z,8.50
2019-03-25T10:28:49.243Z,7.63
2019-03-25T10:31:19.169Z,6.03
2019-03-25T10:33:49.790Z,7.90
2019-03-25T10:36:19.572Z,11.03
2019-03-25T10:38:49.231Z,7.67
2019-03-25T10:41:18.811Z,5.07
2019-03-25T10:43:48.678Z,5.37
2019-03-25T10:46:18.406Z,6.57
2019-03-25T10:48:49.337Z,7.57
2019-03-25T10:51:19.077Z,8.43
2019-03-25T10:53:48.874Z,8.73
2019-03-25T10:56:18.534Z,8.03
2019-03-25T10:58:50.690Z,7.97
2019-03-25T11:01:19.504Z,8.70
2019-03-25T11:03:49.170Z,5.70
2019-03-25T11:06:18.909Z,8.23
2019-03-25T11:08:48.570Z,8.17
2019-03-25T11:11:18.347Z,7.53
2019-03-25T11:13:48.016Z,7.53
2019-03-25T11:16:17.834Z,4.93
2019-03-25T11:18:47.590Z,5.83
2019-03-25T11:21:17.447Z,7.30
2019-03-25T11:23:47.155Z,6.17
2019-03-25T11:26:16.913Z,3.90
2019-03-25T11:28:46.676Z,5.20
2019-03-25T11:31:16.423Z,4.97
2019-03-25T11:33:46.054Z,6.97
2019-03-25T11:36:15.849Z,6.17
2019-03-25T11:38:45.501Z,6.23
2019-03-25T11:41:15.369Z,6.07
2019-03-25T11:43:46.210Z,5.07
2019-03-25T11:46:16.071Z,4.07
2019-03-25T11:48:45.601Z,3.93
2019-03-25T11:51:15.386Z,7.43
2019-03-25T11:53:45.127Z,5.07
2019-03-25T11:56:15.082Z,8.10
2019-03-25T11:58:44.710Z,5.10
2019-03-25T12:01:14.630Z,5.03
2019-03-25T12:03:44.407Z,5.67
2019-03-25T12:06:14.175Z,7.50
2019-03-25T12:08:43.930Z,5.37
2019-03-25T12:11:15.636Z,5.23
2019-03-25T12:13:45.251Z,3.30
2019-03-25T12:16:14.980Z,4.90
2019-03-25T12:18:44.768Z,5.00
2019-03-25T12:21:14.490Z,4.43
2019-03-25T12:23:44.328Z,5.43
2019-03-25T12:26:14.029Z,4.63
2019-03-25T12:28:43.701Z,3.90
2019-03-25T12:31:13.474Z,5.13
2019-03-25T12:33:43.145Z,3.83
2019-03-25T12:36:14.267Z,3.67
2019-03-25T12:38:44.252Z,4.40
2019-03-25T12:41:14.096Z,6.33
2019-03-25T12:43:43.808Z,5.30
2019-03-25T12:46:13.506Z,4.50
2019-03-25T12:48:43.286Z,5.47
2019-03-25T12:51:13.201Z,3.40
2019-03-25T12:53:44.893Z,4.73
2019-03-25T12:56:14.639Z,5.40
2019-03-25T12:58:46.568Z,4.07
2019-03-25T13:01:16.470Z,3.47
2019-03-25T13:03:46.240Z,3.37
2019-03-25T13:06:16.025Z,4.93
2019-03-25T13:08:45.697Z,2.33
2019-03-25T13:11:15.268Z,3.83
2019-03-25T13:13:44.924Z,3.20
2019-03-25T13:16:14.547Z,4.63
2019-03-25T13:18:44.109Z,4.17
2019-03-25T13:21:13.703Z,2.73
2019-03-25T13:23:43.340Z,3.90
2019-03-25T13:26:13.013Z,3.20
2019-03-25T13:28:42.570Z,2.87
2019-03-25T13:31:12.258Z,2.13
2019-03-25T13:33:41.974Z,1.90
2019-03-25T13:36:11.737Z,3.23
2019-03-25T13:38:41.315Z,5.57
2019-03-25T13:41:10.196Z,3.07
2019-03-25T13:43:39.044Z,3.23
2019-03-25T13:46:07.967Z,2.53
2019-03-25T13:48:37.329Z,3.30
2019-03-25T13:51:06.390Z,1.57
2019-03-25T13:53:36.110Z,1.77
2019-03-25T13:56:05.836Z,1.20
2019-03-25T13:58:35.403Z,1.30
2019-03-25T14:01:05.430Z,2.90
2019-03-25T14:03:35.126Z,1.60
2019-03-25T14:06:04.990Z,2.07
2019-03-25T14:08:34.780Z,4.07
2019-03-25T14:11:04.941Z,2.57
2019-03-25T14:13:34.498Z,3.00
2019-03-25T14:16:04.267Z,4.03
2019-03-25T14:18:33.844Z,2.23
2019-03-25T14:21:03.563Z,2.73
2019-03-25T14:23:33.254Z,3.13
2019-03-25T14:26:03.635Z,3.53
2019-03-25T14:28:34.993Z,4.47
2019-03-25T14:31:04.753Z,2.77
2019-03-25T14:33:35.446Z,3.03
2019-03-25T14:36:05.009Z,2.20
2019-03-25T14:38:34.576Z,3.63
2019-03-25T14:41:04.364Z,5.43
2019-03-25T14:43:33.932Z,2.97
2019-03-25T14:46:07.613Z,3.63
2019-03-25T14:48:37.300Z,4.33
2019-03-25T14:51:07.075Z,4.90
2019-03-25T14:53:44.734Z,2.53
2019-03-25T14:56:08.437Z,3.40
2019-03-25T14:58:38.015Z,3.43
2019-03-25T15:01:07.828Z,3.70
2019-03-25T15:03:37.389Z,3.57
2019-03-25T15:06:07.183Z,2.93
2019-03-25T15:08:36.925Z,7.30
2019-03-25T15:11:06.647Z,5.63
2019-03-25T15:13:36.287Z,4.40
2019-03-25T15:16:05.196Z,4.10
2019-03-25T15:18:33.999Z,3.03
2019-03-25T15:21:02.902Z,3.47
2019-03-25T15:23:31.791Z,4.33
2019-03-25T15:26:00.801Z,3.43
2019-03-25T15:28:29.662Z,4.27
2019-03-25T15:30:58.587Z,4.47
2019-03-25T15:33:27.572Z,2.97
2019-03-25T15:35:56.546Z,5.00
2019-03-25T15:38:25.802Z,4.00
2019-03-25T15:40:54.898Z,5.60
2019-03-25T15:43:23.793Z,3.27
2019-03-25T15:45:52.568Z,4.80
2019-03-25T15:48:21.475Z,3.53
2019-03-25T15:50:50.387Z,4.03
2019-03-25T15:53:19.304Z,4.13
2019-03-25T15:55:48.350Z,4.53
2019-03-25T15:58:25.653Z,6.00
2019-03-25T16:00:48.724Z,4.27
2019-03-25T16:03:17.732Z,3.07
2019-03-25T16:05:46.648Z,5.83
2019-03-25T16:08:15.470Z,7.37
2019-03-25T16:10:45.237Z,6.33
2019-03-25T16:13:15.101Z,5.50
2019-03-25T16:15:44.965Z,3.07
2019-03-25T16:18:41.423Z,9.07
2019-03-25T16:21:11.498Z,8.80
2019-03-25T16:23:41.663Z,5.30
2019-03-25T16:26:11.353Z,4.40
2019-03-25T16:28:41.854Z,6.13
2019-03-25T16:31:11.636Z,4.80
2019-03-25T16:33:41.342Z,5.23
2019-03-25T16:36:11.078Z,5.27
2019-03-25T16:38:40.878Z,4.33
2019-03-25T16:41:10.494Z,4.43
2019-03-25T16:43:40.293Z,5.10
2019-03-25T16:46:10.039Z,5.27
2019-03-25T16:48:39.933Z,7.17
2019-03-25T16:51:09.660Z,3.93
2019-03-25T16:53:39.348Z,6.53
2019-03-25T16:56:09.088Z,7.93
2019-03-25T16:58:38.817Z,7.43
2019-03-25T17:01:10.208Z,3.93
2019-03-25T17:03:39.925Z,6.20
2019-03-25T17:06:09.587Z,5.10
2019-03-25T17:08:39.359Z,6.17
2019-03-25T17:11:09.042Z,6.10
2019-03-25T17:13:38.880Z,6.53
2019-03-25T17:16:09.678Z,6.07
2019-03-25T17:18:39.398Z,5.43
2019-03-25T17:21:09.093Z,6.50
2019-03-25T17:23:38.776Z,4.97
2019-03-25T17:26:08.528Z,5.70
2019-03-25T17:28:38.147Z,5.93
2019-03-25T17:31:07.747Z,6.80
2019-03-25T17:33:39.347Z,5.03
2019-03-25T17:36:08.965Z,8.03
2019-03-25T17:38:38.693Z,8.50
2019-03-25T17:41:08.403Z,5.90
2019-03-25T17:43:38.100Z,6.47
2019-03-25T17:46:07.917Z,7.67
2019-03-25T17:48:37.528Z,13.73
2019-03-25T17:51:07.193Z,5.63
2019-03-25T17:53:36.918Z,6.33
2019-03-25T17:56:06.633Z,8.03
2019-03-25T17:58:36.348Z,8.53
2019-03-25T18:01:18.365Z,5.73
2019-03-25T18:03:47.988Z,5.97
2019-03-25T18:06:17.749Z,8.57
2019-03-25T18:08:47.399Z,7.17
2019-03-25T18:11:18.667Z,4.90
2019-03-25T18:13:48.449Z,5.03
2019-03-25T18:16:18.269Z,8.70
2019-03-25T18:18:48.043Z,5.90
2019-03-25T18:21:17.695Z,5.40
2019-03-25T18:23:47.329Z,7.37
2019-03-25T18:26:16.917Z,6.93
2019-03-25T18:28:47.128Z,7.00
2019-03-25T18:31:16.822Z,5.37
2019-03-25T18:33:46.528Z,7.97
2019-03-25T18:36:16.265Z,6.83
2019-03-25T18:38:46.376Z,6.67
2019-03-25T18:41:18.826Z,5.93
2019-03-25T18:43:48.641Z,7.13
2019-03-25T18:46:18.205Z,7.27
2019-03-25T18:48:48.081Z,8.20
2019-03-25T18:51:17.853Z,7.73
2019-03-25T18:53:47.460Z,8.13
2019-03-25T18:56:17.176Z,6.37
2019-03-25T18:58:46.866Z,7.20
2019-03-25T19:01:16.592Z,10.13
2019-03-25T19:03:46.387Z,5.57
2019-03-25T19:06:16.484Z,7.17
2019-03-25T19:08:46.351Z,7.83
2019-03-25T19:11:16.109Z,6.57
2019-03-25T19:13:45.804Z,7.70
2019-03-25T19:16:15.396Z,5.73
2019-03-25T19:18:45.023Z,5.17
2019-03-25T19:21:14.784Z,6.20
2019-03-25T19:23:44.409Z,4.97
2019-03-25T19:26:14.112Z,5.67
2019-03-25T19:28:43.865Z,5.90
2019-03-25T19:31:13.670Z,7.67
2019-03-25T19:33:43.378Z,11.00
2019-03-25T19:36:13.233Z,9.90
2019-03-25T19:38:42.801Z,7.43
2019-03-25T19:41:12.466Z,4.67
2019-03-25T19:43:42.143Z,8.83
2019-03-25T19:46:11.750Z,5.63
2019-03-25T19:48:41.272Z,7.17
2019-03-25T19:51:11.025Z,3.70
2019-03-25T19:53:41.014Z,5.73
2019-03-25T19:56:10.736Z,8.47
2019-03-25T19:58:40.415Z,7.43
2019-03-25T20:01:10.694Z,5.63
2019-03-25T20:03:40.359Z,5.93
2019-03-25T20:06:10.098Z,7.67
2019-03-25T20:08:39.631Z,5.83
2019-03-25T20:11:09.356Z,6.93
2019-03-25T20:13:38.877Z,7.73
2019-03-25T20:16:08.683Z,6.13
2019-03-25T20:18:38.467Z,5.83
2019-03-25T20:21:08.140Z,5.80
2019-03-25T20:23:37.765Z,10.23
2019-03-25T20:26:07.372Z,7.43
2019-03-25T20:28:37.025Z,5.57
2019-03-25T20:31:06.847Z,7.13
2019-03-25T20:33:36.612Z,5.57
2019-03-25T20:36:06.345Z,6.30
2019-03-25T20:38:36.175Z,5.13
2019-03-25T20:41:05.867Z,11.77
2019-03-25T20:43:35.528Z,6.80
2019-03-25T20:46:05.263Z,8.07
2019-03-25T20:48:34.990Z,6.70
2019-03-25T20:51:04.621Z,9.73
2019-03-25T20:53:34.308Z,8.20
2019-03-25T20:56:04.177Z,9.43
2019-03-25T20:58:33.999Z,10.57
2019-03-25T21:01:03.765Z,8.97
2019-03-25T21:03:33.529Z,7.33
2019-03-25T21:06:03.221Z,10.83
2019-03-25T21:08:34.435Z,7.10
2019-03-25T21:11:04.014Z,6.63
2019-03-25T21:13:33.653Z,8.50
2019-03-25T21:16:03.536Z,9.27
2019-03-25T21:18:33.320Z,8.70
2019-03-25T21:21:03.058Z,6.90
2019-03-25T21:23:32.673Z,6.13
2019-03-25T21:26:02.390Z,9.80
2019-03-25T21:28:32.209Z,8.97
2019-03-25T21:31:02.131Z,9.07
2019-03-25T21:33:31.803Z,5.20
2019-03-25T21:36:01.970Z,7.77
2019-03-25T21:38:31.592Z,6.33
2019-03-25T21:41:01.449Z,7.17
2019-03-25T21:43:31.392Z,6.03
2019-03-25T21:46:01.136Z,5.87
2019-03-25T21:48:31.151Z,6.50
2019-03-25T21:51:01.620Z,5.23
2019-03-25T21:53:31.462Z,7.60
2019-03-25T21:56:01.126Z,6.20
2019-03-25T21:58:30.945Z,8.83
2019-03-25T22:01:00.614Z,9.00
2019-03-25T22:03:30.254Z,6.70
2019-03-25T22:06:02.422Z,7.97
2019-03-25T22:08:32.304Z,7.50
2019-03-25T22:11:01.958Z,6.77
2019-03-25T22:13:32.286Z,5.97
2019-03-25T22:16:02.029Z,7.43
2019-03-25T22:18:31.984Z,9.27
2019-03-25T22:21:02.014Z,6.40
2019-03-25T22:23:31.563Z,3.97
2019-03-25T22:26:01.131Z,6.63
2019-03-25T22:28:30.769Z,7.03
2019-03-25T22:31:00.317Z,5.40
2019-03-25T22:33:29.869Z,3.93
2019-03-25T22:35:59.535Z,7.80
2019-03-25T22:38:29.111Z,5.77
2019-03-25T22:40:58.710Z,6.57
2019-03-25T22:43:28.417Z,6.50
2019-03-25T22:45:58.073Z,6.20
2019-03-25T22:48:28.181Z,6.43
2019-03-25T22:50:57.933Z,5.37
2019-03-25T22:53:28.806Z,7.67
2019-03-25T22:55:58.388Z,7.77
2019-03-25T22:58:28.042Z,6.40
2019-03-25T23:00:58.183Z,7.20
2019-03-25T23:03:38.548Z,6.90
2019-03-25T23:05:59.351Z,6.10
2019-03-25T23:08:29.056Z,6.60
2019-03-25T23:10:58.727Z,6.23
2019-03-25T23:13:28.390Z,7.50
2019-03-25T23:15:57.978Z,5.87
2019-03-25T23:18:27.498Z,8.43
2019-03-25T23:21:00.142Z,7.90
2019-03-25T23:23:29.680Z,6.63
2019-03-25T23:25:59.299Z,6.63
2019-03-25T23:28:28.972Z,7.03
2019-03-25T23:30:58.638Z,5.30
2019-03-25T23:33:28.260Z,7.60
2019-03-25T23:36:17.526Z,7.10
2019-03-25T23:38:47.142Z,9.63
2019-03-25T23:41:17.005Z,7.07
2019-03-25T23:43:46.859Z,6.17
2019-03-25T23:46:16.568Z,11.40
2019-03-25T23:48:46.250Z,6.53
2019-03-25T23:51:15.945Z,6.17
2019-03-25T23:53:46.654Z,7.07
2019-03-25T23:56:18.731Z,7.07
2019-03-25T23:58:47.843Z,6.90
